createdAt,value
2017-12-27T00:00:46.936Z,7
2017-12-27T00:01:46.944Z,7.03
2017-12-27T00:02:46.684Z,6.95
2017-12-27T00:03:46.969Z,7
2017-12-27T00:04:46.979Z,6.99
2017-12-27T00:05:46.990Z,6.95
2017-12-27T00:06:46.506Z,7.05
2017-12-27T00:07:46.742Z,6.92
2017-12-27T00:08:46.480Z,6.92
2017-12-27T00:09:46.766Z,6.88
2017-12-27T00:10:46.775Z,6.92
2017-12-27T00:11:46.793Z,6.96
2017-12-27T00:12:47.075Z,6.95
2017-12-27T00:13:47.087Z,6.95
2017-12-27T00:14:46.551Z,6.93
2017-12-27T00:15:46.564Z,6.89
2017-12-27T00:16:46.849Z,6.95
2017-12-27T00:17:46.860Z,6.84
2017-12-27T00:18:46.873Z,6.95
2017-12-27T00:19:46.884Z,6.93
2017-12-27T00:20:46.897Z,6.87
2017-12-27T00:21:47.233Z,6.99
2017-12-27T00:22:46.648Z,6.88
2017-12-27T00:23:46.946Z,6.92
2017-12-27T00:24:46.669Z,6.89
2017-12-27T00:25:46.682Z,6.88
2017-12-27T00:26:46.967Z,6.89
2017-12-27T00:27:47.260Z,6.89
2017-12-27T00:28:46.719Z,6.88
2017-12-27T00:29:47.278Z,6.85
2017-12-27T00:30:47.018Z,6.92
2017-12-27T00:31:47.029Z,6.87
2017-12-27T00:32:47.041Z,6.84
2017-12-27T00:33:47.055Z,6.87
2017-12-27T00:34:47.063Z,6.88
2017-12-27T00:35:47.352Z,6.88
2017-12-27T00:36:47.409Z,6.87
2017-12-27T00:37:47.102Z,6.89
2017-12-27T00:38:47.109Z,6.81
2017-12-27T00:39:47.130Z,6.81
2017-12-27T00:40:47.136Z,6.81
2017-12-27T00:41:46.974Z,6.79
2017-12-27T00:42:47.441Z,6.78
2017-12-27T00:43:46.897Z,6.84
2017-12-27T00:44:47.466Z,6.79
2017-12-27T00:45:47.474Z,6.85
2017-12-27T00:46:47.206Z,6.84
2017-12-27T00:47:46.946Z,6.85
2017-12-27T00:48:46.955Z,6.84
2017-12-27T00:49:47.520Z,6.81
2017-12-27T00:50:47.255Z,6.79
2017-12-27T00:51:47.267Z,6.82
2017-12-27T00:52:47.278Z,6.78
2017-12-27T00:53:47.289Z,6.77
2017-12-27T00:54:47.574Z,6.84
2017-12-27T00:55:47.041Z,6.78
2017-12-27T00:56:47.327Z,6.79
2017-12-27T00:57:47.065Z,6.81
2017-12-27T00:58:47.075Z,6.75
2017-12-27T00:59:47.633Z,6.74
2017-12-27T01:00:47.650Z,6.74
2017-12-27T01:01:47.167Z,6.78
2017-12-27T01:02:47.676Z,6.72
2017-12-27T01:03:47.413Z,6.7
2017-12-27T01:04:47.144Z,6.74
2017-12-27T01:05:47.460Z,6.7
2017-12-27T01:06:47.496Z,6.74
2017-12-27T01:07:47.455Z,6.67
2017-12-27T01:08:47.470Z,6.72
2017-12-27T01:09:47.484Z,6.66
2017-12-27T01:10:47.494Z,6.72
2017-12-27T01:11:47.511Z,6.74
2017-12-27T01:12:47.790Z,6.72
2017-12-27T01:13:47.253Z,6.63
2017-12-27T01:14:47.540Z,6.74
2017-12-27T01:15:47.834Z,6.79
2017-12-27T01:16:47.838Z,6.78
2017-12-27T01:17:47.851Z,6.64
2017-12-27T01:18:47.309Z,6.6
2017-12-27T01:19:47.874Z,6.66
2017-12-27T01:20:47.612Z,6.64
2017-12-27T01:21:47.902Z,6.57
2017-12-27T01:22:47.907Z,6.63
2017-12-27T01:23:47.370Z,6.7
2017-12-27T01:24:47.382Z,6.62
2017-12-27T01:25:47.945Z,6.67
2017-12-27T01:26:47.684Z,6.64
2017-12-27T01:27:47.419Z,6.67
2017-12-27T01:28:47.703Z,6.62
2017-12-27T01:29:47.991Z,6.75
2017-12-27T01:30:47.740Z,6.77
2017-12-27T01:31:47.742Z,6.7
2017-12-27T01:32:47.478Z,6.66
2017-12-27T01:33:47.492Z,6.75
2017-12-27T01:34:47.500Z,6.7
2017-12-27T01:35:48.068Z,6.67
2017-12-27T01:36:48.071Z,6.56
2017-12-27T01:37:48.086Z,6.67
2017-12-27T01:38:48.095Z,6.62
2017-12-27T01:39:47.560Z,6.63
2017-12-27T01:40:47.854Z,6.64
2017-12-27T01:41:48.188Z,6.72
2017-12-27T01:42:47.871Z,6.67
2017-12-27T01:43:47.881Z,6.57
2017-12-27T01:44:47.898Z,6.63
2017-12-27T01:45:47.903Z,6.62
2017-12-27T01:46:47.917Z,6.56
2017-12-27T01:47:47.928Z,6.6
2017-12-27T01:48:47.941Z,6.59
2017-12-27T01:49:47.951Z,6.6
2017-12-27T01:50:48.250Z,6.57
2017-12-27T01:51:48.253Z,6.49
2017-12-27T01:52:48.267Z,6.57
2017-12-27T01:53:48.000Z,6.48
2017-12-27T01:54:48.012Z,6.52
2017-12-27T01:55:48.022Z,6.56
2017-12-27T01:56:47.759Z,6.49
2017-12-27T01:57:48.045Z,6.54
2017-12-27T01:58:47.782Z,6.54
2017-12-27T01:59:48.071Z,6.59
2017-12-27T02:00:48.077Z,6.49
2017-12-27T02:01:48.106Z,6.57
2017-12-27T02:02:48.105Z,6.52
2017-12-27T02:03:48.397Z,6.59
2017-12-27T02:04:48.404Z,6.54
2017-12-27T02:05:48.138Z,6.56
2017-12-27T02:06:47.877Z,6.54
2017-12-27T02:07:48.160Z,6.57
2017-12-27T02:08:48.173Z,6.49
2017-12-27T02:09:48.471Z,6.62
2017-12-27T02:10:48.199Z,6.56
2017-12-27T02:11:48.533Z,6.57
2017-12-27T02:12:48.497Z,6.57
2017-12-27T02:13:47.961Z,6.57
2017-12-27T02:14:48.247Z,6.52
2017-12-27T02:15:48.256Z,6.51
2017-12-27T02:16:48.646Z,6.59
2017-12-27T02:17:48.284Z,6.52
2017-12-27T02:18:48.291Z,6.51
2017-12-27T02:19:48.029Z,6.52
2017-12-27T02:20:48.316Z,6.54
2017-12-27T02:21:48.328Z,6.59
2017-12-27T02:22:48.335Z,6.59
2017-12-27T02:23:48.076Z,6.51
2017-12-27T02:24:48.363Z,6.56
2017-12-27T02:25:48.374Z,6.48
2017-12-27T02:26:48.657Z,6.51
2017-12-27T02:27:48.673Z,6.48
2017-12-27T02:28:48.133Z,6.48
2017-12-27T02:29:48.419Z,6.51
2017-12-27T02:30:48.705Z,6.46
2017-12-27T02:31:48.443Z,6.52
2017-12-27T02:32:48.460Z,6.45
2017-12-27T02:33:48.200Z,6.49
2017-12-27T02:34:48.763Z,6.51
2017-12-27T02:35:48.777Z,6.44
2017-12-27T02:36:48.828Z,6.46
2017-12-27T02:37:48.518Z,6.45
2017-12-27T02:38:48.247Z,6.49
2017-12-27T02:39:48.540Z,6.44
2017-12-27T02:40:48.838Z,6.42
2017-12-27T02:41:48.558Z,6.49
2017-12-27T02:42:48.886Z,6.51
2017-12-27T02:43:48.583Z,6.45
2017-12-27T02:44:48.593Z,6.52
2017-12-27T02:45:48.623Z,6.33
2017-12-27T02:46:48.901Z,6.48
2017-12-27T02:47:48.905Z,6.36
2017-12-27T02:48:48.638Z,6.46
2017-12-27T02:49:48.932Z,6.41
2017-12-27T02:50:48.952Z,6.46
2017-12-27T02:51:48.999Z,6.31
2017-12-27T02:52:48.963Z,6.46
2017-12-27T02:53:48.978Z,6.38
2017-12-27T02:54:48.710Z,6.46
2017-12-27T02:55:48.992Z,6.46
2017-12-27T02:56:49.007Z,6.45
2017-12-27T02:57:49.025Z,6.33
2017-12-27T02:58:49.028Z,6.38
2017-12-27T02:59:48.768Z,6.36
2017-12-27T03:00:48.504Z,6.36
2017-12-27T03:01:49.068Z,6.31
2017-12-27T03:02:48.800Z,6.35
2017-12-27T03:03:48.539Z,6.33
2017-12-27T03:04:48.831Z,6.35
2017-12-27T03:05:49.117Z,6.27
2017-12-27T03:06:49.120Z,6.36
2017-12-27T03:07:48.862Z,6.39
2017-12-27T03:08:48.870Z,6.33
2017-12-27T03:09:49.153Z,6.36
2017-12-27T03:10:48.894Z,6.39
2017-12-27T03:11:48.912Z,6.31
2017-12-27T03:12:48.918Z,6.39
2017-12-27T03:13:48.929Z,6.35
2017-12-27T03:14:49.213Z,6.36
2017-12-27T03:15:48.952Z,6.36
2017-12-27T03:16:49.246Z,6.33
2017-12-27T03:17:49.253Z,6.36
2017-12-27T03:18:48.712Z,6.33
2017-12-27T03:19:48.722Z,6.31
2017-12-27T03:20:49.280Z,6.33
2017-12-27T03:21:49.022Z,6.3
2017-12-27T03:22:49.032Z,6.35
2017-12-27T03:23:49.323Z,6.36
2017-12-27T03:24:49.331Z,6.27
2017-12-27T03:25:49.342Z,6.38
2017-12-27T03:26:49.354Z,6.27
2017-12-27T03:27:49.094Z,6.27
2017-12-27T03:28:48.826Z,6.3
2017-12-27T03:29:49.118Z,6.26
2017-12-27T03:30:49.294Z,6.31
2017-12-27T03:31:49.137Z,6.35
2017-12-27T03:32:49.426Z,6.3
2017-12-27T03:33:49.162Z,6.27
2017-12-27T03:34:49.447Z,6.28
2017-12-27T03:35:49.460Z,6.33
2017-12-27T03:36:49.190Z,6.36
2017-12-27T03:37:48.930Z,6.28
2017-12-27T03:38:49.212Z,6.36
2017-12-27T03:39:48.953Z,6.36
2017-12-27T03:40:48.963Z,6.3
2017-12-27T03:41:49.527Z,6.28
2017-12-27T03:42:48.987Z,6.28
2017-12-27T03:43:49.272Z,6.35
2017-12-27T03:44:49.567Z,6.28
2017-12-27T03:45:49.568Z,6.28
2017-12-27T03:46:49.308Z,6.27
2017-12-27T03:47:49.319Z,6.3
2017-12-27T03:48:49.056Z,6.28
2017-12-27T03:49:49.619Z,6.3
2017-12-27T03:50:49.351Z,6.36
2017-12-27T03:51:49.637Z,6.3
2017-12-27T03:52:49.385Z,6.3
2017-12-27T03:53:49.390Z,6.36
2017-12-27T03:54:49.399Z,6.33
2017-12-27T03:55:49.838Z,6.28
2017-12-27T03:56:49.422Z,6.31
2017-12-27T03:57:49.432Z,6.31
2017-12-27T03:58:49.721Z,6.31
2017-12-27T03:59:49.733Z,6.33
2017-12-27T04:00:49.466Z,6.36
2017-12-27T04:01:49.757Z,6.28
2017-12-27T04:02:49.767Z,6.33
2017-12-27T04:03:49.502Z,6.31
2017-12-27T04:04:49.518Z,6.33
2017-12-27T04:05:49.527Z,6.33
2017-12-27T04:06:49.808Z,6.36
2017-12-27T04:07:49.550Z,6.31
2017-12-27T04:08:49.391Z,6.28
2017-12-27T04:09:49.843Z,6.31
2017-12-27T04:10:49.584Z,6.3
2017-12-27T04:11:49.319Z,6.33
2017-12-27T04:12:49.354Z,6.36
2017-12-27T04:13:49.889Z,6.31
2017-12-27T04:14:49.632Z,6.35
2017-12-27T04:15:49.637Z,6.36
2017-12-27T04:16:49.650Z,6.33
2017-12-27T04:17:50.038Z,6.36
2017-12-27T04:18:49.952Z,6.36
2017-12-27T04:19:49.959Z,6.33
2017-12-27T04:20:49.969Z,6.36
2017-12-27T04:21:49.709Z,6.41
2017-12-27T04:22:50.045Z,6.36
2017-12-27T04:23:50.009Z,6.38
2017-12-27T04:24:50.023Z,6.39
2017-12-27T04:25:49.754Z,6.39
2017-12-27T04:26:50.043Z,6.31
2017-12-27T04:27:49.551Z,6.36
2017-12-27T04:28:49.789Z,6.31
2017-12-27T04:29:49.528Z,6.36
2017-12-27T04:30:49.811Z,6.33
2017-12-27T04:31:49.549Z,6.31
2017-12-27T04:32:49.841Z,6.35
2017-12-27T04:33:50.128Z,6.3
2017-12-27T04:34:50.133Z,6.35
2017-12-27T04:35:50.544Z,6.33
2017-12-27T04:36:49.882Z,6.36
2017-12-27T04:37:50.176Z,6.35
2017-12-27T04:38:49.916Z,6.36
2017-12-27T04:39:49.913Z,6.33
2017-12-27T04:40:49.652Z,6.39
2017-12-27T04:41:50.214Z,6.36
2017-12-27T04:42:49.951Z,6.33
2017-12-27T04:43:49.965Z,6.33
2017-12-27T04:44:49.697Z,6.36
2017-12-27T04:45:49.709Z,6.33
2017-12-27T04:46:50.270Z,6.38
2017-12-27T04:47:50.279Z,6.31
2017-12-27T04:48:50.016Z,6.38
2017-12-27T04:49:49.756Z,6.36
2017-12-27T04:50:50.038Z,6.33
2017-12-27T04:51:50.327Z,6.33
2017-12-27T04:52:50.065Z,6.38
2017-12-27T04:53:50.345Z,6.35
2017-12-27T04:54:50.089Z,6.36
2017-12-27T04:55:50.369Z,6.33
2017-12-27T04:56:50.110Z,6.35
2017-12-27T04:57:50.119Z,6.33
2017-12-27T04:58:50.411Z,6.41
2017-12-27T04:59:49.865Z,6.3
2017-12-27T05:00:50.429Z,6.33
2017-12-27T05:01:50.441Z,6.41
2017-12-27T05:02:50.459Z,6.3
2017-12-27T05:03:50.191Z,6.38
2017-12-27T05:04:50.202Z,6.33
2017-12-27T05:05:50.209Z,6.35
2017-12-27T05:06:50.221Z,6.35
2017-12-27T05:07:50.510Z,6.33
2017-12-27T05:08:50.249Z,6.31
2017-12-27T05:09:50.257Z,6.36
2017-12-27T05:10:50.001Z,6.38
2017-12-27T05:11:50.558Z,6.31
2017-12-27T05:12:50.291Z,6.38
2017-12-27T05:13:50.303Z,6.31
2017-12-27T05:14:50.601Z,6.36
2017-12-27T05:15:50.328Z,6.44
2017-12-27T05:16:50.610Z,6.33
2017-12-27T05:17:50.628Z,6.35
2017-12-27T05:18:50.356Z,6.35
2017-12-27T05:19:50.647Z,6.35
2017-12-27T05:20:50.109Z,6.33
2017-12-27T05:21:50.394Z,6.38
2017-12-27T05:22:50.410Z,6.33
2017-12-27T05:23:50.416Z,6.31
2017-12-27T05:24:50.157Z,6.36
2017-12-27T05:25:50.440Z,6.44
2017-12-27T05:26:50.727Z,6.33
2017-12-27T05:27:50.735Z,6.36
2017-12-27T05:28:50.479Z,6.33
2017-12-27T05:29:50.485Z,6.38
2017-12-27T05:30:50.771Z,6.41
2017-12-27T05:31:50.510Z,6.36
2017-12-27T05:32:50.795Z,6.36
2017-12-27T05:33:50.255Z,6.38
2017-12-27T05:34:50.819Z,6.31
2017-12-27T05:35:50.553Z,6.3
2017-12-27T05:36:50.290Z,6.33
2017-12-27T05:37:50.851Z,6.36
2017-12-27T05:38:50.362Z,6.39
2017-12-27T05:39:50.596Z,6.35
2017-12-27T05:40:50.885Z,6.33
2017-12-27T05:41:50.625Z,6.36
2017-12-27T05:42:50.904Z,6.3
2017-12-27T05:43:50.972Z,6.38
2017-12-27T05:44:50.659Z,6.36
2017-12-27T05:45:50.940Z,6.42
2017-12-27T05:46:50.410Z,6.39
2017-12-27T05:47:50.696Z,6.39
2017-12-27T05:48:50.976Z,6.39
2017-12-27T05:49:50.991Z,6.33
2017-12-27T05:50:51.004Z,6.35
2017-12-27T05:51:51.011Z,6.33
2017-12-27T05:52:50.749Z,6.38
2017-12-27T05:53:51.083Z,6.41
2017-12-27T05:54:50.495Z,6.31
2017-12-27T05:55:50.780Z,6.31
2017-12-27T05:56:51.072Z,6.31
2017-12-27T05:57:50.807Z,6.36
2017-12-27T05:58:51.088Z,6.41
2017-12-27T05:59:50.568Z,6.39
2017-12-27T06:00:51.130Z,6.36
2017-12-27T06:01:51.127Z,6.39
2017-12-27T06:02:51.141Z,6.39
2017-12-27T06:03:50.599Z,6.36
2017-12-27T06:04:51.170Z,6.36
2017-12-27T06:05:50.898Z,6.33
2017-12-27T06:06:50.635Z,6.33
2017-12-27T06:07:50.918Z,6.33
2017-12-27T06:08:51.256Z,6.36
2017-12-27T06:09:51.223Z,6.3
2017-12-27T06:10:50.953Z,6.35
2017-12-27T06:11:50.965Z,6.3
2017-12-27T06:12:50.975Z,6.3
2017-12-27T06:13:51.314Z,6.33
2017-12-27T06:14:51.000Z,6.33
2017-12-27T06:15:51.013Z,6.3
2017-12-27T06:16:51.020Z,6.36
2017-12-27T06:17:51.034Z,6.35
2017-12-27T06:18:51.046Z,6.27
2017-12-27T06:19:50.782Z,6.26
2017-12-27T06:20:51.070Z,6.31
2017-12-27T06:21:51.082Z,6.27
2017-12-27T06:22:51.398Z,6.36
2017-12-27T06:23:51.104Z,6.28
2017-12-27T06:24:51.390Z,6.28
2017-12-27T06:25:51.128Z,6.33
2017-12-27T06:26:51.139Z,6.28
2017-12-27T06:27:50.873Z,6.24
2017-12-27T06:28:51.359Z,6.2
2017-12-27T06:29:51.447Z,6.24
2017-12-27T06:30:50.915Z,6.26
2017-12-27T06:31:51.196Z,6.26
2017-12-27T06:32:51.481Z,6.2
2017-12-27T06:33:51.493Z,6.31
2017-12-27T06:34:51.229Z,6.26
2017-12-27T06:35:50.971Z,6.26
2017-12-27T06:36:51.251Z,6.28
2017-12-27T06:37:51.263Z,6.28
2017-12-27T06:38:51.327Z,6.27
2017-12-27T06:39:51.279Z,6.31
2017-12-27T06:40:51.570Z,6.27
2017-12-27T06:41:51.032Z,6.22
2017-12-27T06:42:51.317Z,6.14
2017-12-27T06:43:51.105Z,6.22
2017-12-27T06:44:51.615Z,6.16
2017-12-27T06:45:51.626Z,6.22
2017-12-27T06:46:51.363Z,6.16
2017-12-27T06:47:51.648Z,6.09
2017-12-27T06:48:51.668Z,6.22
2017-12-27T06:49:51.400Z,6.09
2017-12-27T06:50:51.408Z,6.09
2017-12-27T06:51:51.425Z,6.14
2017-12-27T06:52:51.711Z,6.12
2017-12-27T06:53:51.448Z,6.12
2017-12-27T06:54:51.734Z,6.11
2017-12-27T06:55:51.466Z,6.17
2017-12-27T06:56:51.751Z,6.11
2017-12-27T06:57:51.485Z,6.16
2017-12-27T06:58:51.504Z,6.17
2017-12-27T06:59:51.235Z,6.09
2017-12-27T07:00:51.798Z,6.12
2017-12-27T07:01:51.810Z,6.16
2017-12-27T07:02:51.543Z,6.17
2017-12-27T07:03:51.281Z,6.16
2017-12-27T07:04:51.618Z,6.09
2017-12-27T07:05:51.305Z,6.12
2017-12-27T07:06:51.866Z,6.14
2017-12-27T07:07:51.603Z,6.16
2017-12-27T07:08:51.633Z,6.22
2017-12-27T07:09:51.902Z,6.17
2017-12-27T07:10:51.636Z,6.16
2017-12-27T07:11:51.371Z,6.12
2017-12-27T07:12:51.659Z,6.12
2017-12-27T07:13:51.668Z,6.12
2017-12-27T07:14:51.956Z,6.19
2017-12-27T07:15:51.417Z,6.19
2017-12-27T07:16:51.704Z,6.07
2017-12-27T07:17:51.717Z,6.07
2017-12-27T07:18:51.999Z,6.2
2017-12-27T07:19:52.059Z,6.12
2017-12-27T07:20:52.031Z,6.11
2017-12-27T07:21:51.760Z,6.04
2017-12-27T07:22:51.774Z,6.19
2017-12-27T07:23:52.056Z,6.12
2017-12-27T07:24:51.804Z,6.19
2017-12-27T07:25:51.532Z,6.12
2017-12-27T07:26:51.818Z,6.08
2017-12-27T07:27:51.829Z,6.11
2017-12-27T07:28:52.117Z,6.2
2017-12-27T07:29:51.852Z,6.2
2017-12-27T07:30:51.862Z,6.22
2017-12-27T07:31:51.875Z,6.17
2017-12-27T07:32:51.608Z,6.19
2017-12-27T07:33:52.190Z,6.16
2017-12-27T07:34:52.237Z,6.14
2017-12-27T07:35:52.194Z,6.14
2017-12-27T07:36:52.205Z,6.14
2017-12-27T07:37:51.947Z,6.17
2017-12-27T07:38:51.952Z,6.16
2017-12-27T07:39:51.965Z,6.17
2017-12-27T07:40:51.972Z,6.12
2017-12-27T07:41:52.265Z,6.11
2017-12-27T07:42:51.998Z,6.14
2017-12-27T07:43:51.733Z,6.22
2017-12-27T07:44:52.120Z,6.14
2017-12-27T07:45:52.317Z,6.16
2017-12-27T07:46:51.773Z,6.16
2017-12-27T07:47:52.055Z,6.17
2017-12-27T07:48:52.342Z,6.16
2017-12-27T07:49:51.803Z,6.14
2017-12-27T07:50:52.090Z,6.24
2017-12-27T07:51:52.419Z,6.17
2017-12-27T07:52:52.382Z,6.24
2017-12-27T07:53:52.129Z,6.16
2017-12-27T07:54:51.857Z,6.12
2017-12-27T07:55:52.422Z,6.16
2017-12-27T07:56:52.428Z,6.17
2017-12-27T07:57:52.169Z,6.16
2017-12-27T07:58:52.450Z,6.17
2017-12-27T07:59:52.464Z,6.14
2017-12-27T08:00:52.200Z,6.24
2017-12-27T08:01:52.214Z,6.24
2017-12-27T08:02:52.225Z,6.16
2017-12-27T08:03:51.959Z,6.24
2017-12-27T08:04:52.245Z,6.28
2017-12-27T08:05:52.530Z,6.27
2017-12-27T08:06:52.280Z,6.24
2017-12-27T08:07:52.558Z,6.24
2017-12-27T08:08:52.568Z,6.2
2017-12-27T08:09:52.300Z,6.24
2017-12-27T08:10:52.588Z,6.31
2017-12-27T08:11:52.327Z,6.2
2017-12-27T08:12:52.614Z,6.28
2017-12-27T08:13:52.632Z,6.28
2017-12-27T08:14:52.357Z,6.3
2017-12-27T08:15:52.374Z,6.22
2017-12-27T08:16:52.383Z,6.36
2017-12-27T08:17:52.401Z,6.22
2017-12-27T08:18:52.675Z,6.31
2017-12-27T08:19:52.689Z,6.33
2017-12-27T08:20:52.700Z,6.33
2017-12-27T08:21:52.434Z,6.35
2017-12-27T08:22:52.452Z,6.31
2017-12-27T08:23:52.460Z,6.33
2017-12-27T08:24:52.750Z,6.36
2017-12-27T08:25:52.482Z,6.28
2017-12-27T08:26:52.770Z,6.3
2017-12-27T08:27:52.503Z,6.28
2017-12-27T08:28:52.802Z,6.36
2017-12-27T08:29:52.573Z,6.45
2017-12-27T08:30:52.539Z,6.46
2017-12-27T08:31:52.835Z,6.46
2017-12-27T08:32:52.287Z,6.46
2017-12-27T08:33:52.573Z,6.51
2017-12-27T08:34:52.311Z,6.59
2017-12-27T08:35:52.870Z,6.57
2017-12-27T08:36:52.331Z,6.52
2017-12-27T08:37:52.623Z,6.54
2017-12-27T08:38:52.630Z,6.54
2017-12-27T08:39:52.917Z,6.57
2017-12-27T08:40:52.977Z,6.6
2017-12-27T08:41:52.393Z,6.67
2017-12-27T08:42:52.951Z,6.63
2017-12-27T08:43:52.687Z,6.67
2017-12-27T08:44:52.699Z,6.7
2017-12-27T08:45:52.989Z,6.6
2017-12-27T08:46:52.724Z,6.64
2017-12-27T08:47:52.733Z,6.6
2017-12-27T08:48:52.468Z,6.66
2017-12-27T08:49:53.029Z,6.64
2017-12-27T08:50:52.768Z,6.75
2017-12-27T08:51:52.508Z,6.7
2017-12-27T08:52:53.065Z,6.74
2017-12-27T08:53:52.533Z,6.77
2017-12-27T08:54:53.087Z,6.79
2017-12-27T08:55:53.109Z,6.77
2017-12-27T08:56:53.111Z,6.79
2017-12-27T08:57:52.575Z,6.84
2017-12-27T08:58:52.861Z,6.84
2017-12-27T08:59:52.594Z,6.84
2017-12-27T09:00:53.161Z,6.78
2017-12-27T09:01:53.167Z,6.89
2017-12-27T09:02:53.177Z,6.84
2017-12-27T09:03:52.656Z,6.88
2017-12-27T09:04:52.678Z,6.87
2017-12-27T09:05:53.268Z,6.89
2017-12-27T09:06:52.677Z,6.95
2017-12-27T09:07:53.243Z,6.93
2017-12-27T09:08:53.255Z,6.92
2017-12-27T09:09:53.444Z,6.92
2017-12-27T09:10:53.001Z,6.92
2017-12-27T09:11:53.012Z,7.05
2017-12-27T09:12:53.299Z,7.11
2017-12-27T09:13:53.309Z,7.11
2017-12-27T09:14:52.770Z,7.07
2017-12-27T09:15:53.159Z,7.06
2017-12-27T09:16:53.347Z,7.14
2017-12-27T09:17:52.808Z,7.06
2017-12-27T09:18:53.368Z,7.03
2017-12-27T09:19:53.103Z,7.14
2017-12-27T09:20:53.202Z,7.13
2017-12-27T09:21:52.852Z,7.17
2017-12-27T09:22:52.866Z,7.14
2017-12-27T09:23:53.150Z,7.2
2017-12-27T09:24:53.163Z,7.17
2017-12-27T09:25:53.452Z,7.13
2017-12-27T09:26:53.187Z,7.15
2017-12-27T09:27:53.206Z,7.23
2017-12-27T09:28:53.212Z,7.28
2017-12-27T09:29:53.225Z,7.32
2017-12-27T09:30:53.010Z,7.24
2017-12-27T09:31:53.538Z,7.31
2017-12-27T09:32:53.264Z,7.36
2017-12-27T09:33:53.054Z,7.38
2017-12-27T09:34:53.280Z,7.43
2017-12-27T09:35:53.620Z,7.43
2017-12-27T09:36:53.031Z,7.4
2017-12-27T09:37:53.595Z,7.4
2017-12-27T09:38:53.458Z,7.4
2017-12-27T09:39:53.616Z,7.48
2017-12-27T09:40:53.078Z,7.5
2017-12-27T09:41:53.372Z,7.56
2017-12-27T09:42:53.653Z,7.51
2017-12-27T09:43:53.663Z,7.56
2017-12-27T09:44:53.126Z,7.54
2017-12-27T09:45:53.416Z,7.58
2017-12-27T09:46:53.702Z,7.67
2017-12-27T09:47:53.440Z,7.61
2017-12-27T09:48:53.449Z,7.69
2017-12-27T09:49:53.736Z,7.66
2017-12-27T09:50:53.480Z,7.7
2017-12-27T09:51:53.210Z,7.67
2017-12-27T09:52:53.498Z,7.73
2017-12-27T09:53:53.512Z,7.75
2017-12-27T09:54:53.799Z,7.69
2017-12-27T09:55:53.536Z,7.72
2017-12-27T09:56:53.542Z,7.7
2017-12-27T09:57:53.562Z,7.85
2017-12-27T09:58:53.574Z,7.82
2017-12-27T09:59:53.582Z,7.77
2017-12-27T10:00:53.322Z,7.8
2017-12-27T10:01:53.612Z,7.77
2017-12-27T10:02:53.891Z,7.9
2017-12-27T10:03:53.630Z,7.97
2017-12-27T10:04:53.649Z,7.93
2017-12-27T10:05:53.658Z,7.95
2017-12-27T10:06:53.397Z,7.91
2017-12-27T10:07:53.959Z,7.95
2017-12-27T10:08:53.420Z,8.01
2017-12-27T10:09:53.984Z,8.01
2017-12-27T10:10:53.718Z,7.97
2017-12-27T10:11:53.731Z,8.05
2017-12-27T10:12:54.024Z,8
2017-12-27T10:13:53.761Z,8.1
2017-12-27T10:14:54.041Z,8.05
2017-12-27T10:15:54.054Z,8.1
2017-12-27T10:16:53.794Z,8.09
2017-12-27T10:17:54.086Z,8.19
2017-12-27T10:18:53.824Z,8.13
2017-12-27T10:19:54.104Z,8.18
2017-12-27T10:20:54.181Z,8.15
2017-12-27T10:21:53.851Z,8.23
2017-12-27T10:22:53.868Z,8.16
2017-12-27T10:23:54.153Z,8.26
2017-12-27T10:24:53.618Z,8.27
2017-12-27T10:25:53.905Z,8.24
2017-12-27T10:26:53.926Z,8.23
2017-12-27T10:27:54.217Z,8.24
2017-12-27T10:28:53.947Z,8.3
2017-12-27T10:29:53.677Z,8.27
2017-12-27T10:30:53.974Z,8.31
2017-12-27T10:31:53.982Z,8.24
2017-12-27T10:32:54.278Z,8.3
2017-12-27T10:33:54.007Z,8.37
2017-12-27T10:34:54.018Z,8.34
2017-12-27T10:35:53.806Z,8.36
2017-12-27T10:36:54.081Z,8.33
2017-12-27T10:37:54.056Z,8.44
2017-12-27T10:38:54.068Z,8.48
2017-12-27T10:39:54.356Z,8.46
2017-12-27T10:40:54.096Z,8.46
2017-12-27T10:41:53.839Z,8.44
2017-12-27T10:42:54.116Z,8.48
2017-12-27T10:43:54.408Z,8.52
2017-12-27T10:44:53.872Z,8.53
2017-12-27T10:45:54.164Z,8.56
2017-12-27T10:46:54.174Z,8.52
2017-12-27T10:47:54.459Z,8.7
2017-12-27T10:48:54.484Z,8.7
2017-12-27T10:49:54.210Z,8.76
2017-12-27T10:50:54.273Z,8.74
2017-12-27T10:51:54.243Z,8.66
2017-12-27T10:52:54.250Z,8.7
2017-12-27T10:53:53.986Z,8.67
2017-12-27T10:54:54.550Z,8.78
2017-12-27T10:55:54.337Z,8.76
2017-12-27T10:56:54.577Z,8.78
2017-12-27T10:57:54.315Z,8.76
2017-12-27T10:58:54.327Z,8.87
2017-12-27T10:59:54.336Z,8.76
2017-12-27T11:00:54.630Z,8.76
2017-12-27T11:01:54.366Z,8.81
2017-12-27T11:02:54.116Z,8.87
2017-12-27T11:03:54.392Z,8.91
2017-12-27T11:04:54.404Z,8.91
2017-12-27T11:05:54.418Z,8.89
2017-12-27T11:06:54.157Z,8.89
2017-12-27T11:07:54.721Z,8.88
2017-12-27T11:08:54.732Z,8.99
2017-12-27T11:09:54.744Z,8.92
2017-12-27T11:10:54.755Z,8.88
2017-12-27T11:11:54.229Z,8.85
2017-12-27T11:12:54.514Z,9
2017-12-27T11:13:54.523Z,8.99
2017-12-27T11:14:54.264Z,8.97
2017-12-27T11:15:54.826Z,8.94
2017-12-27T11:16:54.564Z,9.02
2017-12-27T11:17:54.576Z,9
2017-12-27T11:18:54.861Z,8.99
2017-12-27T11:19:54.599Z,9.06
2017-12-27T11:20:54.892Z,9.11
2017-12-27T11:21:54.629Z,9.08
2017-12-27T11:22:54.645Z,8.97
2017-12-27T11:23:54.380Z,9.06
2017-12-27T11:24:54.667Z,9.1
2017-12-27T11:25:54.679Z,9.03
2017-12-27T11:26:54.966Z,9.1
2017-12-27T11:27:54.430Z,9.1
2017-12-27T11:28:54.720Z,9.08
2017-12-27T11:29:55.006Z,9.13
2017-12-27T11:30:54.746Z,9.13
2017-12-27T11:31:54.485Z,9.18
2017-12-27T11:32:55.049Z,9.13
2017-12-27T11:33:54.788Z,9.14
2017-12-27T11:34:54.799Z,9.21
2017-12-27T11:35:54.809Z,9.19
2017-12-27T11:36:54.551Z,9.16
2017-12-27T11:37:54.856Z,9.16
2017-12-27T11:38:54.579Z,9.21
2017-12-27T11:39:54.590Z,9.19
2017-12-27T11:40:54.877Z,9.26
2017-12-27T11:41:54.617Z,9.21
2017-12-27T11:42:54.632Z,9.25
2017-12-27T11:43:54.925Z,9.25
2017-12-27T11:44:55.206Z,9.21
2017-12-27T11:45:54.944Z,9.31
2017-12-27T11:46:54.683Z,9.26
2017-12-27T11:47:54.968Z,9.34
2017-12-27T11:48:54.995Z,9.32
2017-12-27T11:49:55.006Z,9.39
2017-12-27T11:50:55.011Z,9.4
2017-12-27T11:51:55.031Z,9.39
2017-12-27T11:52:55.038Z,9.4
2017-12-27T11:53:55.062Z,9.34
2017-12-27T11:54:55.346Z,9.39
2017-12-27T11:55:55.080Z,9.4
2017-12-27T11:56:55.094Z,9.41
2017-12-27T11:57:54.833Z,9.46
2017-12-27T11:58:55.122Z,9.48
2017-12-27T11:59:55.133Z,9.44
2017-12-27T12:00:55.147Z,9.4
2017-12-27T12:01:55.163Z,9.46
2017-12-27T12:02:54.900Z,9.46
2017-12-27T12:03:55.190Z,9.48
2017-12-27T12:04:55.200Z,9.51
2017-12-27T12:05:55.537Z,9.56
2017-12-27T12:06:55.506Z,9.54
2017-12-27T12:07:55.521Z,9.62
2017-12-27T12:08:55.254Z,9.59
2017-12-27T12:09:55.274Z,9.59
2017-12-27T12:10:55.561Z,9.54
2017-12-27T12:11:55.303Z,9.72
2017-12-27T12:12:55.035Z,9.55
2017-12-27T12:13:55.327Z,9.73
2017-12-27T12:14:55.336Z,9.58
2017-12-27T12:15:55.632Z,9.68
2017-12-27T12:16:55.364Z,9.62
2017-12-27T12:17:55.382Z,9.68
2017-12-27T12:18:55.674Z,9.69
2017-12-27T12:19:55.408Z,9.68
2017-12-27T12:20:55.422Z,9.68
2017-12-27T12:21:55.436Z,9.72
2017-12-27T12:22:55.732Z,9.65
2017-12-27T12:23:55.733Z,9.66
2017-12-27T12:24:55.480Z,9.69
2017-12-27T12:25:55.767Z,9.72
2017-12-27T12:26:55.780Z,9.65
2017-12-27T12:27:55.791Z,9.69
2017-12-27T12:28:55.254Z,9.72
2017-12-27T12:29:55.817Z,9.72
2017-12-27T12:30:55.842Z,9.68
2017-12-27T12:31:55.574Z,9.68
2017-12-27T12:32:55.586Z,9.66
2017-12-27T12:33:55.599Z,9.65
2017-12-27T12:34:55.886Z,9.73
2017-12-27T12:35:55.902Z,9.66
2017-12-27T12:36:55.919Z,9.66
2017-12-27T12:37:55.939Z,9.66
2017-12-27T12:38:55.396Z,9.76
2017-12-27T12:39:55.409Z,9.66
2017-12-27T12:40:55.972Z,9.64
2017-12-27T12:41:56.003Z,9.64
2017-12-27T12:42:55.727Z,9.66
2017-12-27T12:43:55.464Z,9.73
2017-12-27T12:44:56.041Z,9.69
2017-12-27T12:45:55.783Z,9.66
2017-12-27T12:46:56.061Z,9.64
2017-12-27T12:47:56.070Z,9.66
2017-12-27T12:48:55.534Z,9.77
2017-12-27T12:49:55.823Z,9.76
2017-12-27T12:50:55.832Z,9.64
2017-12-27T12:51:55.900Z,9.83
2017-12-27T12:52:55.871Z,9.82
2017-12-27T12:53:56.149Z,9.66
2017-12-27T12:54:55.891Z,9.79
2017-12-27T12:55:55.905Z,9.72
2017-12-27T12:56:56.193Z,9.83
2017-12-27T12:57:55.933Z,9.83
2017-12-27T12:58:55.676Z,9.68
2017-12-27T12:59:56.241Z,9.72
2017-12-27T13:00:55.979Z,9.77
2017-12-27T13:01:55.991Z,9.69
2017-12-27T13:02:55.729Z,9.83
2017-12-27T13:03:56.019Z,9.65
2017-12-27T13:04:56.032Z,9.82
2017-12-27T13:05:56.319Z,9.79
2017-12-27T13:06:56.059Z,9.69
2017-12-27T13:07:56.074Z,9.66
2017-12-27T13:08:55.815Z,9.82
2017-12-27T13:09:56.578Z,9.64
2017-12-27T13:10:56.115Z,9.8
2017-12-27T13:11:56.133Z,9.68
2017-12-27T13:12:56.144Z,9.66
2017-12-27T13:13:56.443Z,9.66
2017-12-27T13:14:56.448Z,9.69
2017-12-27T13:15:56.460Z,9.66
2017-12-27T13:16:55.927Z,9.72
2017-12-27T13:17:55.945Z,9.82
2017-12-27T13:18:56.225Z,9.62
2017-12-27T13:19:56.240Z,9.68
2017-12-27T13:20:55.980Z,9.62
2017-12-27T13:21:56.600Z,9.69